sensor_id;sensor_type;location;lat;lon;timestamp;pressure;altitude;pressure_sealevel;temperature;humidity
11499;BME280;5806;48.748;9.278;2023-01-10T00:00:47;100637.33;;;7.80;68.76
11499;BME280;5806;48.748;9.278;2023-01-10T00:03:15;100643.22;;;7.59;69.30
11499;BME280;5806;48.748;9.278;2023-01-10T00:05:42;100648.44;;;7.69;69.26
11499;BME280;5806;48.748;9.278;2023-01-10T00:08:16;100663.78;;;7.73;69.20
11499;BME280;5806;48.748;9.278;2023-01-10T00:10:40;100669.93;;;7.77;69.08
11499;BME280;5806;48.748;9.278;2023-01-10T00:13:18;100675.88;;;7.68;69.28
11499;BME280;5806;48.748;9.278;2023-01-10T00:15:54;100682.99;;;7.78;69.39
11499;BME280;5806;48.748;9.278;2023-01-10T00:18:22;100685.94;;;7.76;69.72
11499;BME280;5806;48.748;9.278;2023-01-10T00:20:50;100700.38;;;7.68;69.90
11499;BME280;5806;48.748;9.278;2023-01-10T00:23:17;100699.03;;;7.77;69.66
11499;BME280;5806;48.748;9.278;2023-01-10T00:25:45;100702.81;;;7.76;69.74
11499;BME280;5806;48.748;9.278;2023-01-10T00:28:13;100717.47;;;7.75;70.07
11499;BME280;5806;48.748;9.278;2023-01-10T00:30:51;100719.36;;;7.65;68.95
11499;BME280;5806;48.748;9.278;2023-01-10T00:33:23;100721.58;;;7.50;68.90
11499;BME280;5806;48.748;9.278;2023-01-10T00:35:51;100734.93;;;7.67;69.05
11499;BME280;5806;48.748;9.278;2023-01-10T00:38:18;100746.19;;;7.71;68.41
11499;BME280;5806;48.748;9.278;2023-01-10T00:40:46;100749.62;;;7.75;68.54
11499;BME280;5806;48.748;9.278;2023-01-10T00:43:13;100758.34;;;7.59;68.51
11499;BME280;5806;48.748;9.278;2023-01-10T00:45:59;100764.57;;;7.66;68.36
11499;BME280;5806;48.748;9.278;2023-01-10T00:48:28;100766.80;;;7.60;68.34
11499;BME280;5806;48.748;9.278;2023-01-10T00:50:55;100777.89;;;7.65;68.18
11499;BME280;5806;48.748;9.278;2023-01-10T00:53:23;100775.89;;;7.63;68.65
11499;BME280;5806;48.748;9.278;2023-01-10T00:55:50;100781.02;;;7.53;68.36
11499;BME280;5806;48.748;9.278;2023-01-10T00:58:17;100784.88;;;7.79;67.94
11499;BME280;5806;48.748;9.278;2023-01-10T01:00:45;100796.28;;;7.79;67.96
11499;BME280;5806;48.748;9.278;2023-01-10T01:03:15;100799.03;;;7.63;68.01
11499;BME280;5806;48.748;9.278;2023-01-10T01:05:44;100802.41;;;7.74;67.81
11499;BME280;5806;48.748;9.278;2023-01-10T01:08:13;100810.61;;;7.59;67.37
11499;BME280;5806;48.748;9.278;2023-01-10T01:10:41;100808.80;;;7.46;67.97
11499;BME280;5806;48.748;9.278;2023-01-10T01:13:11;100820.06;;;7.50;67.77
11499;BME280;5806;48.748;9.278;2023-01-10T01:15:38;100821.00;;;7.53;67.96
11499;BME280;5806;48.748;9.278;2023-01-10T01:18:06;100824.08;;;7.63;66.84
11499;BME280;5806;48.748;9.278;2023-01-10T01:20:34;100823.50;;;7.54;67.42
11499;BME280;5806;48.748;9.278;2023-01-10T01:23:01;100830.25;;;7.61;66.99
11499;BME280;5806;48.748;9.278;2023-01-10T01:25:28;100830.75;;;7.67;67.24
11499;BME280;5806;48.748;9.278;2023-01-10T01:27:56;100831.83;;;7.59;66.58
11499;BME280;5806;48.748;9.278;2023-01-10T01:30:23;100842.94;;;7.58;67.09
11499;BME280;5806;48.748;9.278;2023-01-10T01:32:51;100854.81;;;7.79;67.10
11499;BME280;5806;48.748;9.278;2023-01-10T01:35:18;100854.44;;;7.75;66.40
11499;BME280;5806;48.748;9.278;2023-01-10T01:37:46;100861.64;;;7.63;67.05
11499;BME280;5806;48.748;9.278;2023-01-10T01:40:16;100866.66;;;7.66;67.01
11499;BME280;5806;48.748;9.278;2023-01-10T01:42:44;100873.34;;;7.55;67.22
11499;BME280;5806;48.748;9.278;2023-01-10T01:45:32;100872.19;;;7.53;66.98
11499;BME280;5806;48.748;9.278;2023-01-10T01:48:26;100870.22;;;7.67;67.05
11499;BME280;5806;48.748;9.278;2023-01-10T01:51:07;100874.41;;;7.47;67.10
11499;BME280;5806;48.748;9.278;2023-01-10T01:53:39;100879.12;;;7.65;66.70
11499;BME280;5806;48.748;9.278;2023-01-10T01:56:10;100890.52;;;7.49;66.45
11499;BME280;5806;48.748;9.278;2023-01-10T01:58:43;100888.59;;;7.71;65.99
11499;BME280;5806;48.748;9.278;2023-01-10T02:01:08;100888.91;;;7.72;66.64
11499;BME280;5806;48.748;9.278;2023-01-10T02:03:37;100903.02;;;7.63;66.54
11499;BME280;5806;48.748;9.278;2023-01-10T02:06:06;100904.59;;;7.61;66.09
11499;BME280;5806;48.748;9.278;2023-01-10T02:08:34;100905.06;;;7.52;66.39
11499;BME280;5806;48.748;9.278;2023-01-10T02:11:09;100916.64;;;7.56;66.38
11499;BME280;5806;48.748;9.278;2023-01-10T02:13:41;100910.81;;;7.53;66.14
11499;BME280;5806;48.748;9.278;2023-01-10T02:16:11;100912.63;;;7.65;66.50
11499;BME280;5806;48.748;9.278;2023-01-10T02:18:40;100918.29;;;7.64;66.08
11499;BME280;5806;48.748;9.278;2023-01-10T02:21:29;100918.37;;;7.66;66.01
11499;BME280;5806;48.748;9.278;2023-01-10T02:30:29;100910.97;;;7.80;65.41
11499;BME280;5806;48.748;9.278;2023-01-10T02:33:02;100923.95;;;7.62;65.95
11499;BME280;5806;48.748;9.278;2023-01-10T02:41:20;100940.92;;;7.58;66.16
11499;BME280;5806;48.748;9.278;2023-01-10T02:43:53;100944.47;;;7.43;65.86
11499;BME280;5806;48.748;9.278;2023-01-10T02:46:24;100944.23;;;7.51;66.06
11499;BME280;5806;48.748;9.278;2023-01-10T02:48:53;100948.83;;;7.50;66.22
11499;BME280;5806;48.748;9.278;2023-01-10T02:51:23;100953.33;;;7.47;66.15
11499;BME280;5806;48.748;9.278;2023-01-10T02:54:07;100951.89;;;7.60;65.54
11499;BME280;5806;48.748;9.278;2023-01-10T02:56:58;100950.31;;;7.46;65.60
11499;BME280;5806;48.748;9.278;2023-01-10T02:59:33;100947.04;;;7.53;65.64
11499;BME280;5806;48.748;9.278;2023-01-10T03:07:33;100952.78;;;7.54;65.06
11499;BME280;5806;48.748;9.278;2023-01-10T03:10:06;100952.91;;;7.50;64.82
11499;BME280;5806;48.748;9.278;2023-01-10T03:12:50;100958.08;;;7.43;65.56
11499;BME280;5806;48.748;9.278;2023-01-10T03:15:09;100960.34;;;7.46;65.29
11499;BME280;5806;48.748;9.278;2023-01-10T03:17:39;100968.59;;;7.55;65.29
11499;BME280;5806;48.748;9.278;2023-01-10T03:20:08;100971.63;;;7.56;65.30
11499;BME280;5806;48.748;9.278;2023-01-10T03:22:38;100975.80;;;7.58;64.49
11499;BME280;5806;48.748;9.278;2023-01-10T03:25:09;100979.58;;;7.57;64.34
11499;BME280;5806;48.748;9.278;2023-01-10T03:27:49;100987.08;;;7.40;64.65
11499;BME280;5806;48.748;9.278;2023-01-10T03:30:29;100982.42;;;7.53;64.62
11499;BME280;5806;48.748;9.278;2023-01-10T03:32:57;100993.45;;;7.36;64.52
11499;BME280;5806;48.748;9.278;2023-01-10T03:35:30;100990.03;;;7.54;64.29
11499;BME280;5806;48.748;9.278;2023-01-10T03:37:58;101006.16;;;7.33;64.53
11499;BME280;5806;48.748;9.278;2023-01-10T03:40:41;101008.19;;;7.44;64.76
11499;BME280;5806;48.748;9.278;2023-01-10T03:43:22;101003.83;;;7.37;64.91
11499;BME280;5806;48.748;9.278;2023-01-10T03:46:20;101002.16;;;7.36;64.54
11499;BME280;5806;48.748;9.278;2023-01-10T03:48:44;101006.16;;;7.33;64.64
11499;BME280;5806;48.748;9.278;2023-01-10T03:51:13;101008.84;;;7.40;64.44
11499;BME280;5806;48.748;9.278;2023-01-10T03:53:41;101011.56;;;7.40;64.68
11499;BME280;5806;48.748;9.278;2023-01-10T03:56:12;101011.87;;;7.41;64.30
11499;BME280;5806;48.748;9.278;2023-01-10T03:58:40;101033.22;;;7.44;64.21
11499;BME280;5806;48.748;9.278;2023-01-10T04:01:07;101028.31;;;7.37;64.49
11499;BME280;5806;48.748;9.278;2023-01-10T04:03:35;101033.13;;;7.41;64.59
11499;BME280;5806;48.748;9.278;2023-01-10T04:06:03;101040.84;;;7.51;64.38
11499;BME280;5806;48.748;9.278;2023-01-10T04:08:31;101041.94;;;7.65;64.29
11499;BME280;5806;48.748;9.278;2023-01-10T04:10:58;101038.66;;;7.44;63.90
11499;BME280;5806;48.748;9.278;2023-01-10T04:13:25;101051.47;;;7.30;64.78
11499;BME280;5806;48.748;9.278;2023-01-10T04:15:53;101050.38;;;7.38;65.01
11499;BME280;5806;48.748;9.278;2023-01-10T04:18:20;101054.79;;;7.32;64.79
11499;BME280;5806;48.748;9.278;2023-01-10T04:20:48;101061.06;;;7.39;64.91
11499;BME280;5806;48.748;9.278;2023-01-10T04:23:15;101066.83;;;7.34;65.46
11499;BME280;5806;48.748;9.278;2023-01-10T04:25:47;101066.71;;;7.38;64.54
11499;BME280;5806;48.748;9.278;2023-01-10T04:28:14;101076.98;;;7.36;65.61
11499;BME280;5806;48.748;9.278;2023-01-10T04:30:41;101076.98;;;7.36;66.00
11499;BME280;5806;48.748;9.278;2023-01-10T04:33:09;101074.38;;;7.32;64.90
11499;BME280;5806;48.748;9.278;2023-01-10T04:35:37;101082.53;;;7.38;65.19
11499;BME280;5806;48.748;9.278;2023-01-10T04:38:05;101082.73;;;7.37;65.18
11499;BME280;5806;48.748;9.278;2023-01-10T04:40:32;101084.42;;;7.31;65.35
11499;BME280;5806;48.748;9.278;2023-01-10T04:43:00;101085.76;;;7.38;65.33
11499;BME280;5806;48.748;9.278;2023-01-10T04:45:27;101082.83;;;7.39;64.50
11499;BME280;5806;48.748;9.278;2023-01-10T04:47:54;101072.08;;;7.29;64.80
11499;BME280;5806;48.748;9.278;2023-01-10T04:50:22;101083.81;;;7.29;65.75
11499;BME280;5806;48.748;9.278;2023-01-10T04:52:50;101082.35;;;7.27;65.71
11499;BME280;5806;48.748;9.278;2023-01-10T04:55:17;101083.80;;;7.16;65.93
11499;BME280;5806;48.748;9.278;2023-01-10T04:57:45;101093.84;;;7.29;65.75
11499;BME280;5806;48.748;9.278;2023-01-10T05:00:13;101098.87;;;7.32;64.81
11499;BME280;5806;48.748;9.278;2023-01-10T05:02:40;101095.44;;;7.14;65.89
11499;BME280;5806;48.748;9.278;2023-01-10T05:05:12;101095.19;;;7.35;65.61
11499;BME280;5806;48.748;9.278;2023-01-10T05:07:40;101092.07;;;7.12;65.67
11499;BME280;5806;48.748;9.278;2023-01-10T05:10:09;101106.41;;;7.23;65.62
11499;BME280;5806;48.748;9.278;2023-01-10T05:12:36;101112.04;;;7.28;65.60
11499;BME280;5806;48.748;9.278;2023-01-10T05:15:05;101113.83;;;7.12;65.76
11499;BME280;5806;48.748;9.278;2023-01-10T05:17:32;101117.83;;;7.23;65.75
11499;BME280;5806;48.748;9.278;2023-01-10T05:20:00;101120.20;;;7.28;65.39
11499;BME280;5806;48.748;9.278;2023-01-10T05:22:27;101118.74;;;7.26;65.47
11499;BME280;5806;48.748;9.278;2023-01-10T05:24:55;101120.12;;;7.06;65.94
11499;BME280;5806;48.748;9.278;2023-01-10T05:27:22;101132.46;;;7.15;65.82
11499;BME280;5806;48.748;9.278;2023-01-10T05:29:49;101116.55;;;7.12;66.11
11499;BME280;5806;48.748;9.278;2023-01-10T05:32:17;101135.08;;;7.13;66.15
11499;BME280;5806;48.748;9.278;2023-01-10T05:34:44;101141.36;;;7.26;65.35
11499;BME280;5806;48.748;9.278;2023-01-10T05:37:12;101125.23;;;7.25;65.14
11499;BME280;5806;48.748;9.278;2023-01-10T05:39:39;101125.66;;;7.22;64.88
11499;BME280;5806;48.748;9.278;2023-01-10T05:42:08;101129.42;;;7.21;65.24
11499;BME280;5806;48.748;9.278;2023-01-10T05:44:35;101125.23;;;7.31;65.16
11499;BME280;5806;48.748;9.278;2023-01-10T05:47:03;101135.92;;;7.20;65.54
11499;BME280;5806;48.748;9.278;2023-01-10T05:49:30;101138.63;;;7.26;64.92
11499;BME280;5806;48.748;9.278;2023-01-10T05:51:58;101152.55;;;7.27;64.63
11499;BME280;5806;48.748;9.278;2023-01-10T05:54:25;101166.27;;;7.10;65.37
11499;BME280;5806;48.748;9.278;2023-01-10T05:56:55;101165.43;;;7.29;64.69
11499;BME280;5806;48.748;9.278;2023-01-10T05:59:22;101173.27;;;7.22;64.63
11499;BME280;5806;48.748;9.278;2023-01-10T06:01:50;101160.71;;;7.21;65.17
11499;BME280;5806;48.748;9.278;2023-01-10T06:04:17;101167.94;;;7.31;65.15
11499;BME280;5806;48.748;9.278;2023-01-10T06:06:45;101158.40;;;7.24;64.98
11499;BME280;5806;48.748;9.278;2023-01-10T06:09:12;101149.30;;;7.08;65.37
11499;BME280;5806;48.748;9.278;2023-01-10T06:11:39;101158.00;;;7.08;65.15
11499;BME280;5806;48.748;9.278;2023-01-10T06:14:07;101170.24;;;7.08;65.63
11499;BME280;5806;48.748;9.278;2023-01-10T06:16:35;101183.44;;;7.11;65.68
11499;BME280;5806;48.748;9.278;2023-01-10T06:19:03;101194.17;;;7.08;65.89
11499;BME280;5806;48.748;9.278;2023-01-10T06:21:30;101190.44;;;7.09;65.24
11499;BME280;5806;48.748;9.278;2023-01-10T06:23:58;101195.87;;;7.03;65.10
11499;BME280;5806;48.748;9.278;2023-01-10T06:26:25;101206.25;;;7.23;65.42
11499;BME280;5806;48.748;9.278;2023-01-10T06:28:52;101211.99;;;7.24;64.89
11499;BME280;5806;48.748;9.278;2023-01-10T06:31:20;101210.19;;;7.20;65.00
11499;BME280;5806;48.748;9.278;2023-01-10T06:33:49;101221.41;;;7.21;65.28
11499;BME280;5806;48.748;9.278;2023-01-10T06:36:17;101213.77;;;7.27;65.31
11499;BME280;5806;48.748;9.278;2023-01-10T06:38:44;101212.94;;;7.27;65.03
11499;BME280;5806;48.748;9.278;2023-01-10T06:41:12;101215.43;;;7.22;64.80
11499;BME280;5806;48.748;9.278;2023-01-10T06:43:46;101229.23;;;7.14;64.98
11499;BME280;5806;48.748;9.278;2023-01-10T06:46:12;101238.24;;;7.14;65.38
11499;BME280;5806;48.748;9.278;2023-01-10T06:48:42;101237.53;;;7.29;65.16
11499;BME280;5806;48.748;9.278;2023-01-10T06:51:12;101241.81;;;7.21;65.51
11499;BME280;5806;48.748;9.278;2023-01-10T06:53:40;101242.53;;;7.26;65.03
11499;BME280;5806;48.748;9.278;2023-01-10T06:56:08;101236.89;;;7.27;65.04
11499;BME280;5806;48.748;9.278;2023-01-10T06:58:36;101236.77;;;7.05;64.98
11499;BME280;5806;48.748;9.278;2023-01-10T07:01:14;101248.47;;;7.06;65.23
11499;BME280;5806;48.748;9.278;2023-01-10T07:03:43;101258.44;;;7.16;65.37
11499;BME280;5806;48.748;9.278;2023-01-10T07:06:10;101257.18;;;7.12;65.34
11499;BME280;5806;48.748;9.278;2023-01-10T07:08:43;101260.10;;;7.10;64.74
11499;BME280;5806;48.748;9.278;2023-01-10T07:11:12;101255.27;;;7.06;64.92
11499;BME280;5806;48.748;9.278;2023-01-10T07:13:40;101258.94;;;7.02;65.75
11499;BME280;5806;48.748;9.278;2023-01-10T07:16:10;101266.25;;;7.08;65.27
11499;BME280;5806;48.748;9.278;2023-01-10T07:18:40;101271.17;;;7.02;65.00
11499;BME280;5806;48.748;9.278;2023-01-10T07:21:08;101274.47;;;6.85;65.50
11499;BME280;5806;48.748;9.278;2023-01-10T07:23:37;101279.53;;;7.01;65.52
11499;BME280;5806;48.748;9.278;2023-01-10T07:26:06;101288.25;;;7.07;65.43
11499;BME280;5806;48.748;9.278;2023-01-10T07:28:34;101279.64;;;7.03;65.38
11499;BME280;5806;48.748;9.278;2023-01-10T07:31:04;101292.31;;;7.00;65.17
11499;BME280;5806;48.748;9.278;2023-01-10T07:33:32;101285.30;;;7.08;65.01
11499;BME280;5806;48.748;9.278;2023-01-10T07:36:00;101300.78;;;7.01;65.32
11499;BME280;5806;48.748;9.278;2023-01-10T07:38:28;101311.12;;;7.02;65.50
11499;BME280;5806;48.748;9.278;2023-01-10T07:40:56;101313.99;;;7.11;65.62
11499;BME280;5806;48.748;9.278;2023-01-10T07:43:23;101307.05;;;7.08;64.97
11499;BME280;5806;48.748;9.278;2023-01-10T07:45:51;101310.98;;;7.23;64.75
11499;BME280;5806;48.748;9.278;2023-01-10T07:48:18;101314.41;;;7.14;64.61
11499;BME280;5806;48.748;9.278;2023-01-10T07:50:46;101314.67;;;6.96;65.08
11499;BME280;5806;48.748;9.278;2023-01-10T07:53:13;101315.63;;;6.99;65.93
11499;BME280;5806;48.748;9.278;2023-01-10T07:55:40;101322.02;;;7.08;64.74
11499;BME280;5806;48.748;9.278;2023-01-10T07:58:10;101325.66;;;6.98;66.04
11499;BME280;5806;48.748;9.278;2023-01-10T08:00:37;101328.53;;;7.20;65.14
11499;BME280;5806;48.748;9.278;2023-01-10T08:03:04;101335.32;;;7.14;65.48
11499;BME280;5806;48.748;9.278;2023-01-10T08:05:32;101330.16;;;7.02;65.74
11499;BME280;5806;48.748;9.278;2023-01-10T08:08:06;101334.25;;;7.08;65.41
11499;BME280;5806;48.748;9.278;2023-01-10T08:10:36;101330.74;;;7.21;65.27
11499;BME280;5806;48.748;9.278;2023-01-10T08:13:04;101333.67;;;7.19;64.54
11499;BME280;5806;48.748;9.278;2023-01-10T08:15:32;101343.62;;;6.93;65.65
11499;BME280;5806;48.748;9.278;2023-01-10T08:18:01;101342.86;;;7.12;65.43
11499;BME280;5806;48.748;9.278;2023-01-10T08:20:29;101344.13;;;7.16;65.07
11499;BME280;5806;48.748;9.278;2023-01-10T08:22:57;101339.97;;;7.26;64.90
11499;BME280;5806;48.748;9.278;2023-01-10T08:25:26;101353.56;;;7.20;64.49
11499;BME280;5806;48.748;9.278;2023-01-10T08:27:53;101354.42;;;7.27;64.56
11499;BME280;5806;48.748;9.278;2023-01-10T08:30:21;101359.81;;;7.20;64.98
11499;BME280;5806;48.748;9.278;2023-01-10T08:32:49;101360.67;;;7.21;65.03
11499;BME280;5806;48.748;9.278;2023-01-10T08:35:17;101362.59;;;7.27;64.46
11499;BME280;5806;48.748;9.278;2023-01-10T08:37:45;101367.78;;;7.22;65.27
11499;BME280;5806;48.748;9.278;2023-01-10T08:40:13;101371.27;;;7.33;64.19
11499;BME280;5806;48.748;9.278;2023-01-10T08:42:40;101375.36;;;7.33;64.68
11499;BME280;5806;48.748;9.278;2023-01-10T08:45:08;101370.84;;;7.23;65.29
11499;BME280;5806;48.748;9.278;2023-01-10T08:47:36;101376.13;;;7.14;65.19
11499;BME280;5806;48.748;9.278;2023-01-10T08:50:03;101377.48;;;7.14;64.92
11499;BME280;5806;48.748;9.278;2023-01-10T08:52:31;101375.54;;;7.25;64.27
11499;BME280;5806;48.748;9.278;2023-01-10T08:54:58;101377.75;;;7.25;64.58
11499;BME280;5806;48.748;9.278;2023-01-10T08:57:26;101376.90;;;7.25;64.46
11499;BME280;5806;48.748;9.278;2023-01-10T08:59:53;101383.83;;;7.34;64.82
11499;BME280;5806;48.748;9.278;2023-01-10T09:02:20;101378.27;;;7.25;64.69
11499;BME280;5806;48.748;9.278;2023-01-10T09:04:48;101384.20;;;7.18;65.11
11499;BME280;5806;48.748;9.278;2023-01-10T09:07:15;101386.39;;;7.12;65.08
11499;BME280;5806;48.748;9.278;2023-01-10T09:09:43;101388.09;;;6.96;65.80
11499;BME280;5806;48.748;9.278;2023-01-10T09:12:10;101384.42;;;6.93;66.47
11499;BME280;5806;48.748;9.278;2023-01-10T09:14:55;101390.64;;;7.04;65.67
11499;BME280;5806;48.748;9.278;2023-01-10T09:17:23;101388.95;;;6.96;66.12
11499;BME280;5806;48.748;9.278;2023-01-10T09:19:51;101388.01;;;7.00;65.99
11499;BME280;5806;48.748;9.278;2023-01-10T09:22:18;101393.65;;;6.98;65.96
11499;BME280;5806;48.748;9.278;2023-01-10T09:24:45;101401.09;;;7.00;66.17
11499;BME280;5806;48.748;9.278;2023-01-10T09:27:13;101391.44;;;6.98;66.30
11499;BME280;5806;48.748;9.278;2023-01-10T09:29:41;101392.45;;;7.14;66.04
11499;BME280;5806;48.748;9.278;2023-01-10T09:32:08;101394.07;;;7.02;66.02
11499;BME280;5806;48.748;9.278;2023-01-10T09:34:35;101398.25;;;7.21;65.68
11499;BME280;5806;48.748;9.278;2023-01-10T09:37:03;101402.33;;;7.21;65.57
11499;BME280;5806;48.748;9.278;2023-01-10T09:39:30;101402.48;;;7.07;65.38
11499;BME280;5806;48.748;9.278;2023-01-10T09:44:56;101403.44;;;7.16;66.00
11499;BME280;5806;48.748;9.278;2023-01-10T09:47:37;101401.70;;;7.26;64.83
11499;BME280;5806;48.748;9.278;2023-01-10T09:55:31;101399.16;;;7.48;64.26
11499;BME280;5806;48.748;9.278;2023-01-10T09:58:12;101401.02;;;7.41;65.33
11499;BME280;5806;48.748;9.278;2023-01-10T10:00:45;101403.58;;;7.62;64.20
11499;BME280;5806;48.748;9.278;2023-01-10T10:03:21;101403.88;;;7.56;64.72
11499;BME280;5806;48.748;9.278;2023-01-10T10:05:48;101400.17;;;7.40;64.15
11499;BME280;5806;48.748;9.278;2023-01-10T10:08:18;101405.88;;;7.58;64.50
11499;BME280;5806;48.748;9.278;2023-01-10T10:17:00;101392.73;;;8.01;63.25
11499;BME280;5806;48.748;9.278;2023-01-10T10:25:13;101384.24;;;8.13;61.29
11499;BME280;5806;48.748;9.278;2023-01-10T10:30:49;101378.91;;;8.09;61.89
11499;BME280;5806;48.748;9.278;2023-01-10T10:33:22;101386.74;;;7.95;62.52
11499;BME280;5806;48.748;9.278;2023-01-10T10:36:03;101382.13;;;8.15;61.89
11499;BME280;5806;48.748;9.278;2023-01-10T10:38:33;101370.09;;;8.20;61.79
11499;BME280;5806;48.748;9.278;2023-01-10T10:41:00;101380.91;;;8.17;62.11
11499;BME280;5806;48.748;9.278;2023-01-10T10:43:33;101374.30;;;8.09;61.71
11499;BME280;5806;48.748;9.278;2023-01-10T10:46:12;101378.99;;;8.18;62.81
11499;BME280;5806;48.748;9.278;2023-01-10T10:48:40;101379.09;;;8.20;62.12
11499;BME280;5806;48.748;9.278;2023-01-10T10:51:14;101379.11;;;8.33;61.30
11499;BME280;5806;48.748;9.278;2023-01-10T10:53:41;101378.81;;;8.26;61.25
11499;BME280;5806;48.748;9.278;2023-01-10T10:56:12;101385.19;;;8.42;61.35
11499;BME280;5806;48.748;9.278;2023-01-10T10:58:42;101387.98;;;8.51;61.52
11499;BME280;5806;48.748;9.278;2023-01-10T11:01:13;101370.81;;;8.50;61.70
11499;BME280;5806;48.748;9.278;2023-01-10T11:06:16;101360.61;;;8.55;60.79
11499;BME280;5806;48.748;9.278;2023-01-10T11:08:46;101353.89;;;8.57;60.62
11499;BME280;5806;48.748;9.278;2023-01-10T11:11:28;101357.75;;;8.65;60.71
11499;BME280;5806;48.748;9.278;2023-01-10T11:14:02;101352.75;;;8.62;60.57
11499;BME280;5806;48.748;9.278;2023-01-10T11:16:37;101356.58;;;8.77;60.29
11499;BME280;5806;48.748;9.278;2023-01-10T11:21:39;101360.79;;;8.73;60.60
11499;BME280;5806;48.748;9.278;2023-01-10T11:26:54;101351.38;;;8.62;60.15
11499;BME280;5806;48.748;9.278;2023-01-10T11:29:37;101346.19;;;8.76;60.80
11499;BME280;5806;48.748;9.278;2023-01-10T11:32:07;101341.30;;;8.63;59.91
11499;BME280;5806;48.748;9.278;2023-01-10T11:34:36;101337.11;;;8.60;59.81
11499;BME280;5806;48.748;9.278;2023-01-10T11:37:16;101335.35;;;8.57;60.22
11499;BME280;5806;48.748;9.278;2023-01-10T11:39:34;101335.35;;;8.57;60.74
11499;BME280;5806;48.748;9.278;2023-01-10T11:42:36;101327.84;;;8.74;60.02
11499;BME280;5806;48.748;9.278;2023-01-10T11:44:37;101323.66;;;8.65;59.49
11499;BME280;5806;48.748;9.278;2023-01-10T11:47:08;101322.61;;;8.73;59.17
11499;BME280;5806;48.748;9.278;2023-01-10T11:49:39;101322.79;;;8.78;59.17
11499;BME280;5806;48.748;9.278;2023-01-10T11:52:22;101322.24;;;8.85;59.67
11499;BME280;5806;48.748;9.278;2023-01-10T11:54:50;101322.16;;;8.82;59.71
11499;BME280;5806;48.748;9.278;2023-01-10T11:57:22;101328.94;;;8.89;58.66
11499;BME280;5806;48.748;9.278;2023-01-10T11:59:56;101323.54;;;8.98;58.73
11499;BME280;5806;48.748;9.278;2023-01-10T12:02:30;101323.48;;;8.89;58.39
11499;BME280;5806;48.748;9.278;2023-01-10T12:04:55;101320.58;;;8.84;57.95
11499;BME280;5806;48.748;9.278;2023-01-10T12:07:24;101310.23;;;8.92;57.42
11499;BME280;5806;48.748;9.278;2023-01-10T12:09:59;101317.48;;;8.89;56.84
11499;BME280;5806;48.748;9.278;2023-01-10T12:12:29;101310.95;;;8.97;56.64
11499;BME280;5806;48.748;9.278;2023-01-10T12:15:01;101307.59;;;8.95;56.73
11499;BME280;5806;48.748;9.278;2023-01-10T12:17:37;101311.55;;;8.83;56.63
11499;BME280;5806;48.748;9.278;2023-01-10T12:20:04;101307.20;;;8.91;57.22
11499;BME280;5806;48.748;9.278;2023-01-10T12:22:34;101308.58;;;9.07;57.32
11499;BME280;5806;48.748;9.278;2023-01-10T12:25:14;101312.39;;;8.84;57.32
11499;BME280;5806;48.748;9.278;2023-01-10T12:27:35;101308.95;;;8.95;58.14
11499;BME280;5806;48.748;9.278;2023-01-10T12:30:12;101312.64;;;8.76;58.19
11499;BME280;5806;48.748;9.278;2023-01-10T12:32:42;101313.33;;;8.80;57.86
11499;BME280;5806;48.748;9.278;2023-01-10T12:37:54;101308.88;;;8.70;58.30
11499;BME280;5806;48.748;9.278;2023-01-10T12:40:36;101315.97;;;8.56;57.59
11499;BME280;5806;48.748;9.278;2023-01-10T12:43:06;101309.42;;;8.63;57.69
11499;BME280;5806;48.748;9.278;2023-01-10T12:45:57;101313.72;;;8.62;56.90
11499;BME280;5806;48.748;9.278;2023-01-10T12:48:41;101299.24;;;8.61;57.22
11499;BME280;5806;48.748;9.278;2023-01-10T12:51:04;101295.48;;;8.62;57.99
11499;BME280;5806;48.748;9.278;2023-01-10T12:53:34;101287.97;;;8.73;57.24
11499;BME280;5806;48.748;9.278;2023-01-10T12:56:04;101287.70;;;8.66;57.65
11499;BME280;5806;48.748;9.278;2023-01-10T12:58:38;101283.22;;;8.62;57.77
11499;BME280;5806;48.748;9.278;2023-01-10T13:01:11;101276.91;;;8.62;57.08
11499;BME280;5806;48.748;9.278;2023-01-10T13:03:38;101269.84;;;8.70;56.87
11499;BME280;5806;48.748;9.278;2023-01-10T13:06:06;101270.52;;;8.59;57.82
11499;BME280;5806;48.748;9.278;2023-01-10T13:08:35;101264.77;;;8.58;58.05
11499;BME280;5806;48.748;9.278;2023-01-10T13:11:06;101267.58;;;8.60;57.46
11499;BME280;5806;48.748;9.278;2023-01-10T13:13:36;101261.70;;;8.63;57.22
11499;BME280;5806;48.748;9.278;2023-01-10T13:21:42;101256.31;;;8.50;57.87
11499;BME280;5806;48.748;9.278;2023-01-10T13:26:57;101260.49;;;8.53;57.54
11499;BME280;5806;48.748;9.278;2023-01-10T13:29:41;101256.73;;;8.47;58.17
11499;BME280;5806;48.748;9.278;2023-01-10T13:32:22;101257.86;;;8.55;57.89
11499;BME280;5806;48.748;9.278;2023-01-10T13:34:51;101254.37;;;8.57;57.83
11499;BME280;5806;48.748;9.278;2023-01-10T13:37:34;101247.16;;;8.54;57.92
11499;BME280;5806;48.748;9.278;2023-01-10T13:40:01;101247.25;;;8.56;58.23
11499;BME280;5806;48.748;9.278;2023-01-10T13:42:35;101245.31;;;8.41;57.81
11499;BME280;5806;48.748;9.278;2023-01-10T13:45:30;101248.05;;;8.48;57.67
11499;BME280;5806;48.748;9.278;2023-01-10T13:48:00;101248.70;;;8.37;57.76
11499;BME280;5806;48.748;9.278;2023-01-10T14:01:03;101233.95;;;8.29;58.85
11499;BME280;5806;48.748;9.278;2023-01-10T14:03:57;101234.78;;;8.36;58.33
11499;BME280;5806;48.748;9.278;2023-01-10T14:09:29;101231.84;;;8.31;58.57
11499;BME280;5806;48.748;9.278;2023-01-10T14:14:36;101216.05;;;8.17;58.37
11499;BME280;5806;48.748;9.278;2023-01-10T14:20:06;101212.48;;;8.17;58.39
11499;BME280;5806;48.748;9.278;2023-01-10T14:22:36;101207.13;;;8.26;58.15
11499;BME280;5806;48.748;9.278;2023-01-10T14:25:39;101201.28;;;8.22;58.23
11499;BME280;5806;48.748;9.278;2023-01-10T14:27:46;101208.09;;;8.22;58.63
11499;BME280;5806;48.748;9.278;2023-01-10T14:30:26;101202.46;;;8.39;57.81
11499;BME280;5806;48.748;9.278;2023-01-10T14:32:56;101195.62;;;8.24;58.00
11499;BME280;5806;48.748;9.278;2023-01-10T14:35:29;101197.41;;;8.21;58.11
11499;BME280;5806;48.748;9.278;2023-01-10T14:37:57;101192.63;;;8.38;58.02
11499;BME280;5806;48.748;9.278;2023-01-10T14:40:46;101193.02;;;8.13;58.44
11499;BME280;5806;48.748;9.278;2023-01-10T14:43:16;101188.26;;;8.18;57.79
11499;BME280;5806;48.748;9.278;2023-01-10T14:46:07;101179.08;;;8.06;58.01